sensor_id;sensor_type;location;lat;lon;timestamp;P1;durP1;ratioP1;P2;durP2;ratioP2
2293;SDS011;1155;42.644;23.264;2023-05-08T00:01:28;7.33;;;6.07;;
2293;SDS011;1155;42.644;23.264;2023-05-08T00:03:55;6.80;;;6.10;;
2293;SDS011;1155;42.644;23.264;2023-05-08T00:06:23;7.37;;;6.60;;
2293;SDS011;1155;42.644;23.264;2023-05-08T00:08:51;9.90;;;5.93;;
2293;SDS011;1155;42.644;23.264;2023-05-08T00:11:18;6.77;;;5.90;;
2293;SDS011;1155;42.644;23.264;2023-05-08T00:13:48;9.50;;;7.03;;
2293;SDS011;1155;42.644;23.264;2023-05-08T00:16:14;7.37;;;6.67;;
2293;SDS011;1155;42.644;23.264;2023-05-08T00:18:41;6.37;;;5.80;;
2293;SDS011;1155;42.644;23.264;2023-05-08T00:21:08;6.70;;;6.10;;
2293;SDS011;1155;42.644;23.264;2023-05-08T00:23:36;6.57;;;5.80;;
2293;SDS011;1155;42.644;23.264;2023-05-08T00:26:03;8.60;;;6.73;;
2293;SDS011;1155;42.644;23.264;2023-05-08T00:28:31;7.73;;;6.07;;
2293;SDS011;1155;42.644;23.264;2023-05-08T00:30:58;7.60;;;5.97;;
2293;SDS011;1155;42.644;23.264;2023-05-08T00:33:26;6.90;;;5.20;;
2293;SDS011;1155;42.644;23.264;2023-05-08T00:35:57;6.37;;;5.77;;
2293;SDS011;1155;42.644;23.264;2023-05-08T00:38:25;6.67;;;6.10;;
2293;SDS011;1155;42.644;23.264;2023-05-08T00:40:53;10.37;;;6.73;;
2293;SDS011;1155;42.644;23.264;2023-05-08T00:43:19;8.27;;;6.10;;
2293;SDS011;1155;42.644;23.264;2023-05-08T00:45:49;7.17;;;6.47;;
2293;SDS011;1155;42.644;23.264;2023-05-08T00:48:22;7.93;;;5.97;;
2293;SDS011;1155;42.644;23.264;2023-05-08T00:50:52;8.07;;;5.50;;
2293;SDS011;1155;42.644;23.264;2023-05-08T00:53:21;6.43;;;5.73;;
2293;SDS011;1155;42.644;23.264;2023-05-08T00:55:48;7.30;;;6.60;;
2293;SDS011;1155;42.644;23.264;2023-05-08T00:58:18;9.63;;;6.77;;
2293;SDS011;1155;42.644;23.264;2023-05-08T01:00:46;9.30;;;6.97;;
2293;SDS011;1155;42.644;23.264;2023-05-08T01:03:16;7.13;;;6.47;;
2293;SDS011;1155;42.644;23.264;2023-05-08T01:05:43;7.73;;;7.10;;
2293;SDS011;1155;42.644;23.264;2023-05-08T01:08:10;8.73;;;7.10;;
2293;SDS011;1155;42.644;23.264;2023-05-08T01:10:40;8.00;;;7.20;;
2293;SDS011;1155;42.644;23.264;2023-05-08T01:13:13;8.53;;;6.10;;
2293;SDS011;1155;42.644;23.264;2023-05-08T01:15:50;7.20;;;6.43;;
2293;SDS011;1155;42.644;23.264;2023-05-08T01:18:29;8.37;;;6.03;;
2293;SDS011;1155;42.644;23.264;2023-05-08T01:21:03;7.83;;;7.13;;
2293;SDS011;1155;42.644;23.264;2023-05-08T01:26:42;8.70;;;6.97;;
2293;SDS011;1155;42.644;23.264;2023-05-08T01:32:26;6.60;;;5.90;;
2293;SDS011;1155;42.644;23.264;2023-05-08T01:34:59;9.50;;;7.33;;
2293;SDS011;1155;42.644;23.264;2023-05-08T01:37:37;6.97;;;6.30;;
2293;SDS011;1155;42.644;23.264;2023-05-08T01:40:16;7.37;;;6.30;;
2293;SDS011;1155;42.644;23.264;2023-05-08T01:42:52;8.30;;;7.40;;
2293;SDS011;1155;42.644;23.264;2023-05-08T01:45:30;16.63;;;8.77;;
2293;SDS011;1155;42.644;23.264;2023-05-08T01:48:03;8.10;;;6.53;;
2293;SDS011;1155;42.644;23.264;2023-05-08T01:50:34;8.80;;;7.33;;
2293;SDS011;1155;42.644;23.264;2023-05-08T01:53:07;7.53;;;6.37;;
2293;SDS011;1155;42.644;23.264;2023-05-08T01:55:37;7.70;;;6.90;;
2293;SDS011;1155;42.644;23.264;2023-05-08T01:58:07;7.60;;;6.80;;
2293;SDS011;1155;42.644;23.264;2023-05-08T02:00:37;6.67;;;5.97;;
2293;SDS011;1155;42.644;23.264;2023-05-08T02:03:08;8.13;;;7.23;;
2293;SDS011;1155;42.644;23.264;2023-05-08T02:05:38;7.80;;;7.10;;
2293;SDS011;1155;42.644;23.264;2023-05-08T02:08:07;11.80;;;7.47;;
2293;SDS011;1155;42.644;23.264;2023-05-08T02:10:37;8.30;;;7.37;;
2293;SDS011;1155;42.644;23.264;2023-05-08T02:13:09;7.00;;;6.30;;
2293;SDS011;1155;42.644;23.264;2023-05-08T02:15:38;11.23;;;6.90;;
2293;SDS011;1155;42.644;23.264;2023-05-08T02:18:08;8.10;;;7.23;;
2293;SDS011;1155;42.644;23.264;2023-05-08T02:20:37;7.73;;;7.00;;
2293;SDS011;1155;42.644;23.264;2023-05-08T02:23:05;8.97;;;7.40;;
2293;SDS011;1155;42.644;23.264;2023-05-08T02:25:32;13.53;;;7.00;;
2293;SDS011;1155;42.644;23.264;2023-05-08T02:28:01;7.30;;;6.37;;
2293;SDS011;1155;42.644;23.264;2023-05-08T02:30:29;6.90;;;6.20;;
2293;SDS011;1155;42.644;23.264;2023-05-08T02:32:56;7.00;;;6.30;;
2293;SDS011;1155;42.644;23.264;2023-05-08T02:35:28;11.50;;;8.80;;
2293;SDS011;1155;42.644;23.264;2023-05-08T02:37:56;13.10;;;10.40;;
2293;SDS011;1155;42.644;23.264;2023-05-08T02:40:25;8.80;;;6.73;;
2293;SDS011;1155;42.644;23.264;2023-05-08T02:42:54;9.30;;;6.47;;
2293;SDS011;1155;42.644;23.264;2023-05-08T02:45:21;9.60;;;6.70;;
2293;SDS011;1155;42.644;23.264;2023-05-08T02:47:56;9.37;;;6.60;;
2293;SDS011;1155;42.644;23.264;2023-05-08T02:50:35;8.20;;;7.07;;
2293;SDS011;1155;42.644;23.264;2023-05-08T02:53:10;7.80;;;7.10;;
2293;SDS011;1155;42.644;23.264;2023-05-08T02:55:45;8.17;;;6.50;;
2293;SDS011;1155;42.644;23.264;2023-05-08T02:58:16;6.07;;;5.50;;
2293;SDS011;1155;42.644;23.264;2023-05-08T03:00:46;7.37;;;6.67;;
2293;SDS011;1155;42.644;23.264;2023-05-08T03:03:21;10.37;;;6.63;;
2293;SDS011;1155;42.644;23.264;2023-05-08T03:05:53;8.83;;;6.73;;
2293;SDS011;1155;42.644;23.264;2023-05-08T03:08:24;9.30;;;5.90;;
2293;SDS011;1155;42.644;23.264;2023-05-08T03:10:55;8.20;;;7.50;;
2293;SDS011;1155;42.644;23.264;2023-05-08T03:13:27;7.10;;;6.07;;
2293;SDS011;1155;42.644;23.264;2023-05-08T03:15:57;7.07;;;6.00;;
2293;SDS011;1155;42.644;23.264;2023-05-08T03:18:27;7.10;;;6.40;;
2293;SDS011;1155;42.644;23.264;2023-05-08T03:20:58;6.43;;;5.87;;
2293;SDS011;1155;42.644;23.264;2023-05-08T03:23:27;9.50;;;6.87;;
2293;SDS011;1155;42.644;23.264;2023-05-08T03:25:59;7.10;;;6.50;;
2293;SDS011;1155;42.644;23.264;2023-05-08T03:28:26;8.57;;;6.27;;
2293;SDS011;1155;42.644;23.264;2023-05-08T03:30:56;7.63;;;5.90;;
2293;SDS011;1155;42.644;23.264;2023-05-08T03:33:26;8.40;;;6.97;;
2293;SDS011;1155;42.644;23.264;2023-05-08T03:35:54;8.37;;;7.53;;
2293;SDS011;1155;42.644;23.264;2023-05-08T03:38:24;7.80;;;7.00;;
2293;SDS011;1155;42.644;23.264;2023-05-08T03:40:51;6.40;;;5.80;;
2293;SDS011;1155;42.644;23.264;2023-05-08T03:43:18;7.50;;;6.77;;
2293;SDS011;1155;42.644;23.264;2023-05-08T03:45:48;7.87;;;7.00;;
2293;SDS011;1155;42.644;23.264;2023-05-08T03:48:18;6.50;;;5.90;;
2293;SDS011;1155;42.644;23.264;2023-05-08T03:50:46;7.77;;;6.50;;
2293;SDS011;1155;42.644;23.264;2023-05-08T03:53:15;7.07;;;6.47;;
2293;SDS011;1155;42.644;23.264;2023-05-08T03:55:44;6.53;;;5.83;;
2293;SDS011;1155;42.644;23.264;2023-05-08T03:58:13;7.63;;;6.87;;
2293;SDS011;1155;42.644;23.264;2023-05-08T04:00:51;6.73;;;5.67;;
2293;SDS011;1155;42.644;23.264;2023-05-08T04:03:26;6.23;;;5.63;;
2293;SDS011;1155;42.644;23.264;2023-05-08T04:06:08;10.60;;;6.23;;
2293;SDS011;1155;42.644;23.264;2023-05-08T04:08:40;6.77;;;6.13;;
2293;SDS011;1155;42.644;23.264;2023-05-08T04:11:16;8.60;;;6.87;;
2293;SDS011;1155;42.644;23.264;2023-05-08T04:13:56;8.67;;;6.93;;
2293;SDS011;1155;42.644;23.264;2023-05-08T04:16:28;7.60;;;5.60;;
2293;SDS011;1155;42.644;23.264;2023-05-08T04:19:00;6.47;;;5.87;;
2293;SDS011;1155;42.644;23.264;2023-05-08T04:21:28;8.40;;;6.43;;
2293;SDS011;1155;42.644;23.264;2023-05-08T04:23:59;7.70;;;6.03;;
2293;SDS011;1155;42.644;23.264;2023-05-08T04:26:29;7.03;;;5.47;;
2293;SDS011;1155;42.644;23.264;2023-05-08T04:28:57;7.03;;;5.83;;
2293;SDS011;1155;42.644;23.264;2023-05-08T04:31:25;7.23;;;6.50;;
2293;SDS011;1155;42.644;23.264;2023-05-08T04:33:55;6.37;;;5.63;;
2293;SDS011;1155;42.644;23.264;2023-05-08T04:36:22;6.47;;;5.90;;
2293;SDS011;1155;42.644;23.264;2023-05-08T04:38:50;6.63;;;6.03;;
2293;SDS011;1155;42.644;23.264;2023-05-08T04:41:16;7.23;;;6.47;;
2293;SDS011;1155;42.644;23.264;2023-05-08T04:43:45;8.37;;;5.63;;
2293;SDS011;1155;42.644;23.264;2023-05-08T04:46:11;6.80;;;6.13;;
2293;SDS011;1155;42.644;23.264;2023-05-08T04:48:38;7.80;;;6.10;;
2293;SDS011;1155;42.644;23.264;2023-05-08T04:51:05;9.30;;;6.03;;
2293;SDS011;1155;42.644;23.264;2023-05-08T04:53:32;8.27;;;7.27;;
2293;SDS011;1155;42.644;23.264;2023-05-08T04:55:59;13.13;;;5.63;;
2293;SDS011;1155;42.644;23.264;2023-05-08T04:58:26;7.03;;;5.50;;
2293;SDS011;1155;42.644;23.264;2023-05-08T05:00:55;6.33;;;5.73;;
2293;SDS011;1155;42.644;23.264;2023-05-08T05:03:21;10.27;;;6.60;;
2293;SDS011;1155;42.644;23.264;2023-05-08T05:05:48;11.50;;;5.20;;
2293;SDS011;1155;42.644;23.264;2023-05-08T05:08:24;6.83;;;5.63;;
2293;SDS011;1155;42.644;23.264;2023-05-08T05:10:54;9.20;;;7.10;;
2293;SDS011;1155;42.644;23.264;2023-05-08T05:13:21;6.90;;;5.40;;
2293;SDS011;1155;42.644;23.264;2023-05-08T05:15:48;7.63;;;6.07;;
2293;SDS011;1155;42.644;23.264;2023-05-08T05:18:24;8.40;;;6.47;;
2293;SDS011;1155;42.644;23.264;2023-05-08T05:20:51;7.60;;;5.97;;
2293;SDS011;1155;42.644;23.264;2023-05-08T05:23:21;8.50;;;6.20;;
2293;SDS011;1155;42.644;23.264;2023-05-08T05:25:48;8.70;;;6.30;;
2293;SDS011;1155;42.644;23.264;2023-05-08T05:28:14;10.67;;;7.70;;
2293;SDS011;1155;42.644;23.264;2023-05-08T05:30:41;6.00;;;5.40;;
2293;SDS011;1155;42.644;23.264;2023-05-08T05:33:08;6.60;;;5.40;;
2293;SDS011;1155;42.644;23.264;2023-05-08T05:35:36;9.03;;;6.53;;
2293;SDS011;1155;42.644;23.264;2023-05-08T05:38:06;8.37;;;6.20;;
2293;SDS011;1155;42.644;23.264;2023-05-08T05:40:33;8.00;;;6.87;;
2293;SDS011;1155;42.644;23.264;2023-05-08T05:43:00;9.60;;;5.97;;
2293;SDS011;1155;42.644;23.264;2023-05-08T05:45:27;6.23;;;5.63;;
2293;SDS011;1155;42.644;23.264;2023-05-08T05:47:56;8.60;;;6.43;;
2293;SDS011;1155;42.644;23.264;2023-05-08T05:50:26;9.60;;;6.93;;
2293;SDS011;1155;42.644;23.264;2023-05-08T05:52:54;6.70;;;6.10;;
2293;SDS011;1155;42.644;23.264;2023-05-08T05:55:21;8.53;;;7.63;;
2293;SDS011;1155;42.644;23.264;2023-05-08T05:57:48;8.80;;;7.90;;
2293;SDS011;1155;42.644;23.264;2023-05-08T06:00:15;9.90;;;7.00;;
2293;SDS011;1155;42.644;23.264;2023-05-08T06:02:43;7.60;;;6.07;;
2293;SDS011;1155;42.644;23.264;2023-05-08T06:05:10;8.63;;;6.57;;
2293;SDS011;1155;42.644;23.264;2023-05-08T06:07:37;6.43;;;5.83;;
2293;SDS011;1155;42.644;23.264;2023-05-08T06:10:06;7.50;;;5.90;;
2293;SDS011;1155;42.644;23.264;2023-05-08T06:12:33;8.13;;;7.30;;
2293;SDS011;1155;42.644;23.264;2023-05-08T06:15:00;7.40;;;6.13;;
2293;SDS011;1155;42.644;23.264;2023-05-08T06:17:27;7.40;;;6.50;;
2293;SDS011;1155;42.644;23.264;2023-05-08T06:19:57;7.83;;;6.90;;
2293;SDS011;1155;42.644;23.264;2023-05-08T06:22:23;7.10;;;6.40;;
2293;SDS011;1155;42.644;23.264;2023-05-08T06:24:50;10.70;;;6.07;;
2293;SDS011;1155;42.644;23.264;2023-05-08T06:27:19;6.73;;;6.13;;
2293;SDS011;1155;42.644;23.264;2023-05-08T06:29:46;7.40;;;5.27;;
2293;SDS011;1155;42.644;23.264;2023-05-08T06:32:15;10.10;;;7.67;;
2293;SDS011;1155;42.644;23.264;2023-05-08T06:34:42;9.20;;;6.53;;
2293;SDS011;1155;42.644;23.264;2023-05-08T06:37:09;11.83;;;5.80;;
2293;SDS011;1155;42.644;23.264;2023-05-08T06:39:36;7.17;;;6.43;;
2293;SDS011;1155;42.644;23.264;2023-05-08T06:42:03;6.80;;;5.63;;
2293;SDS011;1155;42.644;23.264;2023-05-08T06:44:32;5.93;;;5.43;;
2293;SDS011;1155;42.644;23.264;2023-05-08T06:46:59;8.10;;;6.23;;
2293;SDS011;1155;42.644;23.264;2023-05-08T06:49:26;8.27;;;6.17;;
2293;SDS011;1155;42.644;23.264;2023-05-08T06:51:53;8.80;;;6.70;;
2293;SDS011;1155;42.644;23.264;2023-05-08T06:54:19;12.17;;;5.87;;
2293;SDS011;1155;42.644;23.264;2023-05-08T06:56:49;6.53;;;5.70;;
2293;SDS011;1155;42.644;23.264;2023-05-08T06:59:18;7.80;;;5.90;;
2293;SDS011;1155;42.644;23.264;2023-05-08T07:01:46;11.30;;;7.47;;
2293;SDS011;1155;42.644;23.264;2023-05-08T07:04:13;9.97;;;6.53;;
2293;SDS011;1155;42.644;23.264;2023-05-08T07:06:40;11.53;;;6.67;;
2293;SDS011;1155;42.644;23.264;2023-05-08T07:09:07;9.90;;;8.13;;
2293;SDS011;1155;42.644;23.264;2023-05-08T07:11:34;7.40;;;6.27;;
2293;SDS011;1155;42.644;23.264;2023-05-08T07:14:04;8.23;;;7.43;;
2293;SDS011;1155;42.644;23.264;2023-05-08T07:16:31;8.10;;;6.70;;
2293;SDS011;1155;42.644;23.264;2023-05-08T07:19:00;8.20;;;7.37;;
2293;SDS011;1155;42.644;23.264;2023-05-08T07:21:27;7.63;;;6.90;;
2293;SDS011;1155;42.644;23.264;2023-05-08T07:24:00;12.83;;;6.60;;
2293;SDS011;1155;42.644;23.264;2023-05-08T07:26:27;7.93;;;6.33;;
2293;SDS011;1155;42.644;23.264;2023-05-08T07:28:54;8.20;;;7.17;;
2293;SDS011;1155;42.644;23.264;2023-05-08T07:31:27;8.27;;;7.40;;
2293;SDS011;1155;42.644;23.264;2023-05-08T07:33:54;10.90;;;7.70;;
2293;SDS011;1155;42.644;23.264;2023-05-08T07:36:22;8.80;;;6.77;;
2293;SDS011;1155;42.644;23.264;2023-05-08T07:38:49;10.77;;;7.30;;
2293;SDS011;1155;42.644;23.264;2023-05-08T07:41:16;8.33;;;7.40;;
2293;SDS011;1155;42.644;23.264;2023-05-08T07:43:42;10.87;;;7.83;;
2293;SDS011;1155;42.644;23.264;2023-05-08T07:46:15;20.37;;;9.30;;
2293;SDS011;1155;42.644;23.264;2023-05-08T07:48:43;13.17;;;8.17;;
2293;SDS011;1155;42.644;23.264;2023-05-08T07:51:09;8.93;;;7.00;;
2293;SDS011;1155;42.644;23.264;2023-05-08T07:53:38;12.00;;;6.50;;
2293;SDS011;1155;42.644;23.264;2023-05-08T07:56:05;7.40;;;6.57;;
2293;SDS011;1155;42.644;23.264;2023-05-08T07:58:32;7.57;;;5.83;;
2293;SDS011;1155;42.644;23.264;2023-05-08T08:00:59;6.93;;;5.30;;
2293;SDS011;1155;42.644;23.264;2023-05-08T08:03:29;5.30;;;4.80;;
2293;SDS011;1155;42.644;23.264;2023-05-08T08:05:56;8.27;;;5.10;;
2293;SDS011;1155;42.644;23.264;2023-05-08T08:08:23;7.07;;;4.93;;
2293;SDS011;1155;42.644;23.264;2023-05-08T08:10:51;11.80;;;4.53;;
2293;SDS011;1155;42.644;23.264;2023-05-08T08:13:19;5.23;;;4.70;;
2293;SDS011;1155;42.644;23.264;2023-05-08T08:15:46;8.33;;;5.63;;
2293;SDS011;1155;42.644;23.264;2023-05-08T08:18:13;6.77;;;5.20;;
2293;SDS011;1155;42.644;23.264;2023-05-08T08:20:40;5.30;;;4.60;;
2293;SDS011;1155;42.644;23.264;2023-05-08T08:23:08;8.57;;;5.40;;
2293;SDS011;1155;42.644;23.264;2023-05-08T08:25:36;5.93;;;4.97;;
2293;SDS011;1155;42.644;23.264;2023-05-08T08:28:04;7.13;;;5.23;;
2293;SDS011;1155;42.644;23.264;2023-05-08T08:30:33;6.73;;;4.70;;
2293;SDS011;1155;42.644;23.264;2023-05-08T08:33:00;9.20;;;6.00;;
2293;SDS011;1155;42.644;23.264;2023-05-08T08:35:31;6.57;;;4.77;;
2293;SDS011;1155;42.644;23.264;2023-05-08T08:37:58;6.80;;;4.77;;
2293;SDS011;1155;42.644;23.264;2023-05-08T08:40:27;10.73;;;6.13;;
2293;SDS011;1155;42.644;23.264;2023-05-08T08:42:54;8.50;;;5.70;;
2293;SDS011;1155;42.644;23.264;2023-05-08T08:45:23;12.73;;;5.87;;
2293;SDS011;1155;42.644;23.264;2023-05-08T08:47:51;8.67;;;5.50;;
2293;SDS011;1155;42.644;23.264;2023-05-08T08:50:18;13.50;;;8.70;;
2293;SDS011;1155;42.644;23.264;2023-05-08T08:52:46;8.63;;;6.07;;
2293;SDS011;1155;42.644;23.264;2023-05-08T08:55:25;10.30;;;6.70;;
2293;SDS011;1155;42.644;23.264;2023-05-08T08:57:59;8.03;;;5.73;;
2293;SDS011;1155;42.644;23.264;2023-05-08T09:00:34;12.37;;;5.70;;
2293;SDS011;1155;42.644;23.264;2023-05-08T09:03:02;8.30;;;5.07;;
2293;SDS011;1155;42.644;23.264;2023-05-08T09:05:31;10.90;;;6.73;;
2293;SDS011;1155;42.644;23.264;2023-05-08T09:07:58;9.77;;;5.90;;
2293;SDS011;1155;42.644;23.264;2023-05-08T09:10:26;6.63;;;5.47;;
2293;SDS011;1155;42.644;23.264;2023-05-08T09:12:53;8.60;;;5.57;;
2293;SDS011;1155;42.644;23.264;2023-05-08T09:15:20;5.20;;;4.10;;
2293;SDS011;1155;42.644;23.264;2023-05-08T09:17:48;4.67;;;4.30;;
2293;SDS011;1155;42.644;23.264;2023-05-08T09:20:15;12.13;;;6.57;;
2293;SDS011;1155;42.644;23.264;2023-05-08T09:22:42;9.27;;;4.23;;
2293;SDS011;1155;42.644;23.264;2023-05-08T09:25:09;5.27;;;4.77;;
2293;SDS011;1155;42.644;23.264;2023-05-08T09:27:36;6.50;;;4.43;;
2293;SDS011;1155;42.644;23.264;2023-05-08T09:30:04;5.23;;;4.10;;
2293;SDS011;1155;42.644;23.264;2023-05-08T09:32:32;6.17;;;5.03;;
2293;SDS011;1155;42.644;23.264;2023-05-08T09:35:05;5.67;;;5.03;;
2293;SDS011;1155;42.644;23.264;2023-05-08T09:37:37;6.40;;;5.13;;
2293;SDS011;1155;42.644;23.264;2023-05-08T09:40:14;6.30;;;5.00;;
2293;SDS011;1155;42.644;23.264;2023-05-08T09:42:47;5.53;;;4.93;;
2293;SDS011;1155;42.644;23.264;2023-05-08T09:47:59;14.37;;;6.87;;
2293;SDS011;1155;42.644;23.264;2023-05-08T09:50:27;9.77;;;6.90;;
2293;SDS011;1155;42.644;23.264;2023-05-08T09:52:55;7.80;;;5.37;;
2293;SDS011;1155;42.644;23.264;2023-05-08T09:55:22;8.13;;;6.30;;
2293;SDS011;1155;42.644;23.264;2023-05-08T09:57:53;5.27;;;4.80;;
2293;SDS011;1155;42.644;23.264;2023-05-08T10:00:21;9.33;;;6.17;;
2293;SDS011;1155;42.644;23.264;2023-05-08T10:02:53;11.10;;;5.53;;
2293;SDS011;1155;42.644;23.264;2023-05-08T10:05:22;7.60;;;5.57;;
2293;SDS011;1155;42.644;23.264;2023-05-08T10:07:55;5.40;;;4.90;;
2293;SDS011;1155;42.644;23.264;2023-05-08T10:10:22;7.40;;;5.77;;
2293;SDS011;1155;42.644;23.264;2023-05-08T10:12:51;6.10;;;4.90;;
2293;SDS011;1155;42.644;23.264;2023-05-08T10:15:19;7.47;;;5.77;;
2293;SDS011;1155;42.644;23.264;2023-05-08T10:17:49;5.93;;;5.33;;
2293;SDS011;1155;42.644;23.264;2023-05-08T10:20:23;9.33;;;6.53;;
2293;SDS011;1155;42.644;23.264;2023-05-08T10:22:56;5.87;;;5.27;;
2293;SDS011;1155;42.644;23.264;2023-05-08T10:25:30;5.93;;;4.70;;
2293;SDS011;1155;42.644;23.264;2023-05-08T10:28:05;6.60;;;5.43;;
2293;SDS011;1155;42.644;23.264;2023-05-08T10:30:37;7.13;;;5.93;;
2293;SDS011;1155;42.644;23.264;2023-05-08T10:33:08;5.63;;;5.13;;
2293;SDS011;1155;42.644;23.264;2023-05-08T10:35:36;7.13;;;5.03;;
2293;SDS011;1155;42.644;23.264;2023-05-08T10:38:04;5.47;;;4.93;;
2293;SDS011;1155;42.644;23.264;2023-05-08T10:40:36;6.33;;;5.73;;
2293;SDS011;1155;42.644;23.264;2023-05-08T10:43:04;6.17;;;5.00;;
2293;SDS011;1155;42.644;23.264;2023-05-08T10:45:32;10.10;;;5.80;;
2293;SDS011;1155;42.644;23.264;2023-05-08T10:48:02;6.30;;;5.70;;
2293;SDS011;1155;42.644;23.264;2023-05-08T10:50:41;6.87;;;6.00;;
2293;SDS011;1155;42.644;23.264;2023-05-08T10:53:18;11.07;;;5.27;;
2293;SDS011;1155;42.644;23.264;2023-05-08T10:55:50;6.00;;;5.37;;
2293;SDS011;1155;42.644;23.264;2023-05-08T10:58:30;6.17;;;5.10;;
2293;SDS011;1155;42.644;23.264;2023-05-08T11:01:13;9.37;;;6.00;;
2293;SDS011;1155;42.644;23.264;2023-05-08T11:03:45;5.30;;;4.80;;
2293;SDS011;1155;42.644;23.264;2023-05-08T11:06:14;7.07;;;5.70;;
2293;SDS011;1155;42.644;23.264;2023-05-08T11:08:49;7.40;;;5.73;;
2293;SDS011;1155;42.644;23.264;2023-05-08T11:11:26;6.83;;;5.40;;
2293;SDS011;1155;42.644;23.264;2023-05-08T11:14:09;6.20;;;5.60;;
2293;SDS011;1155;42.644;23.264;2023-05-08T11:19:32;5.70;;;5.20;;
2293;SDS011;1155;42.644;23.264;2023-05-08T11:22:13;8.37;;;6.10;;
2293;SDS011;1155;42.644;23.264;2023-05-08T11:24:47;5.53;;;5.10;;
2293;SDS011;1155;42.644;23.264;2023-05-08T11:27:17;6.20;;;5.60;;
2293;SDS011;1155;42.644;23.264;2023-05-08T11:33:10;5.77;;;4.80;;
2293;SDS011;1155;42.644;23.264;2023-05-08T11:35:42;7.40;;;5.57;;
2293;SDS011;1155;42.644;23.264;2023-05-08T11:38:10;6.43;;;4.47;;
2293;SDS011;1155;42.644;23.264;2023-05-08T11:40:48;5.57;;;5.07;;
2293;SDS011;1155;42.644;23.264;2023-05-08T11:43:25;5.53;;;5.07;;
2293;SDS011;1155;42.644;23.264;2023-05-08T11:45:59;6.87;;;5.60;;
2293;SDS011;1155;42.644;23.264;2023-05-08T11:48:27;5.60;;;5.10;;
2293;SDS011;1155;42.644;23.264;2023-05-08T11:50:54;5.80;;;5.00;;
2293;SDS011;1155;42.644;23.264;2023-05-08T11:53:21;4.70;;;4.17;;
2293;SDS011;1155;42.644;23.264;2023-05-08T11:55:52;5.00;;;3.97;;
2293;SDS011;1155;42.644;23.264;2023-05-08T11:58:20;6.97;;;4.80;;
2293;SDS011;1155;42.644;23.264;2023-05-08T12:00:47;5.50;;;4.73;;
2293;SDS011;1155;42.644;23.264;2023-05-08T12:03:15;5.27;;;4.77;;
2293;SDS011;1155;42.644;23.264;2023-05-08T12:05:43;4.63;;;4.17;;
2293;SDS011;1155;42.644;23.264;2023-05-08T12:08:11;8.63;;;4.53;;
2293;SDS011;1155;42.644;23.264;2023-05-08T12:10:39;4.50;;;4.10;;
2293;SDS011;1155;42.644;23.264;2023-05-08T12:13:15;4.70;;;4.13;;
2293;SDS011;1155;42.644;23.264;2023-05-08T12:15:44;6.23;;;4.60;;
2293;SDS011;1155;42.644;23.264;2023-05-08T12:18:11;4.47;;;4.10;;
2293;SDS011;1155;42.644;23.264;2023-05-08T12:20:38;3.70;;;3.40;;
2293;SDS011;1155;42.644;23.264;2023-05-08T12:23:05;7.13;;;3.77;;
2293;SDS011;1155;42.644;23.264;2023-05-08T12:25:33;4.43;;;4.00;;
2293;SDS011;1155;42.644;23.264;2023-05-08T12:27:59;4.57;;;4.10;;
2293;SDS011;1155;42.644;23.264;2023-05-08T12:30:28;5.90;;;5.40;;
2293;SDS011;1155;42.644;23.264;2023-05-08T12:32:55;5.10;;;4.33;;
2293;SDS011;1155;42.644;23.264;2023-05-08T12:35:22;5.53;;;5.03;;
2293;SDS011;1155;42.644;23.264;2023-05-08T12:37:49;9.23;;;4.87;;
2293;SDS011;1155;42.644;23.264;2023-05-08T12:40:23;4.80;;;4.40;;
2293;SDS011;1155;42.644;23.264;2023-05-08T12:42:51;5.30;;;4.80;;
2293;SDS011;1155;42.644;23.264;2023-05-08T12:45:19;4.43;;;4.03;;
2293;SDS011;1155;42.644;23.264;2023-05-08T12:47:48;5.60;;;5.10;;
2293;SDS011;1155;42.644;23.264;2023-05-08T12:50:16;5.70;;;4.90;;
2293;SDS011;1155;42.644;23.264;2023-05-08T12:52:45;7.60;;;4.47;;
2293;SDS011;1155;42.644;23.264;2023-05-08T12:55:22;5.10;;;4.10;;
2293;SDS011;1155;42.644;23.264;2023-05-08T12:57:50;7.97;;;4.90;;
2293;SDS011;1155;42.644;23.264;2023-05-08T13:00:25;6.40;;;4.10;;
2293;SDS011;1155;42.644;23.264;2023-05-08T13:03:02;5.80;;;4.50;;
2293;SDS011;1155;42.644;23.264;2023-05-08T13:05:32;4.90;;;4.20;;
2293;SDS011;1155;42.644;23.264;2023-05-08T13:08:01;4.73;;;4.33;;
2293;SDS011;1155;42.644;23.264;2023-05-08T13:10:42;5.13;;;4.53;;
2293;SDS011;1155;42.644;23.264;2023-05-08T13:13:11;7.13;;;5.87;;
2293;SDS011;1155;42.644;23.264;2023-05-08T13:15:38;4.33;;;3.90;;
2293;SDS011;1155;42.644;23.264;2023-05-08T13:18:07;4.93;;;4.40;;
2293;SDS011;1155;42.644;23.264;2023-05-08T13:20:37;4.73;;;4.43;;
2293;SDS011;1155;42.644;23.264;2023-05-08T13:23:05;5.90;;;4.27;;
2293;SDS011;1155;42.644;23.264;2023-05-08T13:25:32;4.97;;;4.53;;
2293;SDS011;1155;42.644;23.264;2023-05-08T13:28:03;4.03;;;3.63;;
2293;SDS011;1155;42.644;23.264;2023-05-08T13:30:30;4.90;;;4.50;;
2293;SDS011;1155;42.644;23.264;2023-05-08T13:32:57;5.93;;;5.33;;
2293;SDS011;1155;42.644;23.264;2023-05-08T13:35:26;5.60;;;5.10;;
2293;SDS011;1155;42.644;23.264;2023-05-08T13:37:54;7.93;;;5.50;;
2293;SDS011;1155;42.644;23.264;2023-05-08T13:40:21;10.00;;;5.47;;
2293;SDS011;1155;42.644;23.264;2023-05-08T13:42:49;9.57;;;6.27;;
2293;SDS011;1155;42.644;23.264;2023-05-08T13:45:16;9.50;;;5.53;;
2293;SDS011;1155;42.644;23.264;2023-05-08T13:47:43;5.90;;;5.30;;
2293;SDS011;1155;42.644;23.264;2023-05-08T13:50:12;15.13;;;6.47;;
2293;SDS011;1155;42.644;23.264;2023-05-08T13:52:41;6.37;;;5.70;;
2293;SDS011;1155;42.644;23.264;2023-05-08T13:55:09;7.07;;;6.37;;
2293;SDS011;1155;42.644;23.264;2023-05-08T13:57:37;8.80;;;6.20;;
2293;SDS011;1155;42.644;23.264;2023-05-08T14:00:04;6.80;;;6.10;;
2293;SDS011;1155;42.644;23.264;2023-05-08T14:02:33;8.70;;;6.10;;
2293;SDS011;1155;42.644;23.264;2023-05-08T14:05:01;6.70;;;5.60;;
2293;SDS011;1155;42.644;23.264;2023-05-08T14:07:28;6.50;;;5.90;;
2293;SDS011;1155;42.644;23.264;2023-05-08T14:09:59;6.43;;;5.67;;
2293;SDS011;1155;42.644;23.264;2023-05-08T14:12:25;9.90;;;6.20;;
2293;SDS011;1155;42.644;23.264;2023-05-08T14:14:52;8.97;;;6.90;;
2293;SDS011;1155;42.644;23.264;2023-05-08T14:17:19;8.63;;;5.70;;
2293;SDS011;1155;42.644;23.264;2023-05-08T14:19:46;6.10;;;5.60;;
2293;SDS011;1155;42.644;23.264;2023-05-08T14:22:13;7.40;;;6.80;;
2293;SDS011;1155;42.644;23.264;2023-05-08T14:24:40;10.50;;;6.13;;
2293;SDS011;1155;42.644;23.264;2023-05-08T14:27:08;7.40;;;6.33;;
2293;SDS011;1155;42.644;23.264;2023-05-08T14:29:35;7.60;;;6.90;;
2293;SDS011;1155;42.644;23.264;2023-05-08T14:32:04;7.13;;;6.43;;
2293;SDS011;1155;42.644;23.264;2023-05-08T14:34:31;8.60;;;7.50;;
2293;SDS011;1155;42.644;23.264;2023-05-08T14:36:58;7.63;;;6.70;;
2293;SDS011;1155;42.644;23.264;2023-05-08T14:39:24;7.70;;;6.53;;
2293;SDS011;1155;42.644;23.264;2023-05-08T14:41:51;8.50;;;6.80;;
2293;SDS011;1155;42.644;23.264;2023-05-08T14:44:20;7.87;;;6.10;;
2293;SDS011;1155;42.644;23.264;2023-05-08T14:46:46;10.60;;;7.20;;
2293;SDS011;1155;42.644;23.264;2023-05-08T14:49:13;7.50;;;6.80;;
2293;SDS011;1155;42.644;23.264;2023-05-08T14:51:40;9.57;;;7.53;;
2293;SDS011;1155;42.644;23.264;2023-05-08T14:54:07;6.77;;;6.17;;
2293;SDS011;1155;42.644;23.264;2023-05-08T14:56:34;8.97;;;7.27;;
2293;SDS011;1155;42.644;23.264;2023-05-08T14:59:01;8.00;;;6.97;;
2293;SDS011;1155;42.644;23.264;2023-05-08T15:01:29;8.23;;;7.53;;
2293;SDS011;1155;42.644;23.264;2023-05-08T15:03:56;8.13;;;7.33;;
2293;SDS011;1155;42.644;23.264;2023-05-08T15:06:23;8.30;;;7.50;;
2293;SDS011;1155;42.644;23.264;2023-05-08T15:08:51;6.33;;;5.73;;
2293;SDS011;1155;42.644;23.264;2023-05-08T15:11:23;7.43;;;5.50;;
2293;SDS011;1155;42.644;23.264;2023-05-08T15:13:52;8.30;;;6.27;;
2293;SDS011;1155;42.644;23.264;2023-05-08T15:16:19;6.83;;;6.20;;
2293;SDS011;1155;42.644;23.264;2023-05-08T15:18:47;9.60;;;6.60;;
2293;SDS011;1155;42.644;23.264;2023-05-08T15:21:16;7.30;;;5.87;;
2293;SDS011;1155;42.644;23.264;2023-05-08T15:23:45;7.50;;;5.63;;
2293;SDS011;1155;42.644;23.264;2023-05-08T15:26:12;7.10;;;5.97;;
2293;SDS011;1155;42.644;23.264;2023-05-08T15:28:39;6.20;;;5.20;;